Tropical Cyclones
[Index]
Main Index Home Page Stock Weather Photos Extreme Storms Discussion Storm News and Storm Chasing Reports Tropical Cyclones / Hurricanes / Typhoons Weather Data and Links Wild Fires / Bushfires Weather Observation Techniques Weather Picture Catalogue Tornado Pictures and Reports Stock Video Footage and DVDs for sale
Season 1987-1988 Tropical Cyclone 198814 Track Map
Season 1987-1988 Summaries: [BoM-AU] [JTWC-AU] [JTWC-SIO] [JTWC-SPAC] [JTWC-SH]
<<- Previous TC | JTWC 1987-1988 Season | Next TC ->>

click for intensity scale information  Lat/long Grid: Show Hide

 Date Labels: Show Hide

Joint Typhoon Warning Centre Cyclone Data

Name: 198814

24 Feb 1988 06:00 UTC to 02 Mar 1988 06:00 UTC

    date/time    lat    long     hPa   cat  kts
1988-02-24 06   10.9    49.9                  25          
1988-02-24 12   11.5    49.5                  30          
1988-02-24 18   12.1    48.8                  30          
1988-02-25 00   13.0    47.9                  25          
1988-02-25 06   13.9    47.2                  25          
1988-02-25 12   14.5    46.6                  25          
1988-02-25 18   15.0    46.0                  25          
1988-02-26 00   15.5    45.3                  25          
1988-02-26 06   15.9    44.5                  25          
1988-02-26 12   16.2    43.9                  30          
1988-02-26 18   16.5    43.3                  30          
1988-02-27 00   16.7    42.7                  30          
1988-02-27 06   17.0    42.2                  30          
1988-02-27 12   17.4    41.7                  35          
1988-02-27 18   17.9    41.1            1     40          
1988-02-28 00   18.4    40.5            1     45          
1988-02-28 06   18.8    40.0            2     55          
1988-02-28 12   19.0    39.9            2     60          
1988-02-28 18   19.1    40.0            2     65          
1988-02-29 00   19.2    39.9            2     70          
1988-02-29 06   19.3    39.8            3     75          
1988-02-29 12   19.3    39.6            3     80          
1988-02-29 18   19.2    39.5            3     80          
1988-03-01 00   19.0    39.1            3     80          
1988-03-01 06   18.9    38.5            3     85          
1988-03-01 12   18.8    37.9            3     85          
1988-03-01 18   18.6    37.1            3     85          
1988-03-02 00   18.2    36.5            2     65          
1988-03-02 06   17.7    36.0            1     40          
Winds are 1-min average.

Tropical cyclone tracks developed by Michael Bath using data from the Joint Typhoon Warning Centre Best Tracks and Google Maps.


[Australian Severe Weather index] [Copyright Notice] [Email Contacts] [Search This Site] [Privacy Policy]
Document: tropical_cyclone_198814.htm Updated: 18 September 2016